sensor_id;sensor_type;location;lat;lon;timestamp;P1;durP1;ratioP1;P2;durP2;ratioP2
41101;SDS011;26845;50.190;19.178;2023-09-18T00:00:29;4.20;;;3.70;;
41101;SDS011;26845;50.190;19.178;2023-09-18T00:02:56;4.60;;;4.20;;
41101;SDS011;26845;50.190;19.178;2023-09-18T00:05:22;3.90;;;3.30;;
41101;SDS011;26845;50.190;19.178;2023-09-18T00:07:48;4.70;;;3.60;;
41101;SDS011;26845;50.190;19.178;2023-09-18T00:10:15;3.20;;;3.00;;
41101;SDS011;26845;50.190;19.178;2023-09-18T00:12:41;3.60;;;3.30;;
41101;SDS011;26845;50.190;19.178;2023-09-18T00:15:08;3.90;;;3.60;;
41101;SDS011;26845;50.190;19.178;2023-09-18T00:17:36;3.90;;;3.50;;
41101;SDS011;26845;50.190;19.178;2023-09-18T00:20:02;3.60;;;3.30;;
41101;SDS011;26845;50.190;19.178;2023-09-18T00:22:49;5.50;;;3.60;;
41101;SDS011;26845;50.190;19.178;2023-09-18T00:25:15;7.40;;;3.00;;
41101;SDS011;26845;50.190;19.178;2023-09-18T00:27:46;3.80;;;3.20;;
41101;SDS011;26845;50.190;19.178;2023-09-18T00:30:13;4.50;;;3.50;;
41101;SDS011;26845;50.190;19.178;2023-09-18T00:32:39;4.10;;;3.50;;
41101;SDS011;26845;50.190;19.178;2023-09-18T00:35:05;6.30;;;3.70;;
41101;SDS011;26845;50.190;19.178;2023-09-18T00:37:44;7.00;;;4.40;;
41101;SDS011;26845;50.190;19.178;2023-09-18T00:40:12;5.20;;;3.20;;
41101;SDS011;26845;50.190;19.178;2023-09-18T00:42:39;4.90;;;3.50;;
41101;SDS011;26845;50.190;19.178;2023-09-18T00:45:05;4.20;;;3.20;;
41101;SDS011;26845;50.190;19.178;2023-09-18T00:48:01;3.10;;;2.80;;
41101;SDS011;26845;50.190;19.178;2023-09-18T00:50:31;6.30;;;4.00;;
41101;SDS011;26845;50.190;19.178;2023-09-18T00:53:03;4.00;;;3.70;;
41101;SDS011;26845;50.190;19.178;2023-09-18T00:55:30;4.90;;;4.00;;
41101;SDS011;26845;50.190;19.178;2023-09-18T00:57:57;3.90;;;3.50;;
41101;SDS011;26845;50.190;19.178;2023-09-18T01:00:25;4.70;;;3.70;;
41101;SDS011;26845;50.190;19.178;2023-09-18T01:02:51;4.40;;;3.50;;
41101;SDS011;26845;50.190;19.178;2023-09-18T01:05:18;9.00;;;5.10;;
41101;SDS011;26845;50.190;19.178;2023-09-18T01:07:47;6.60;;;4.10;;
41101;SDS011;26845;50.190;19.178;2023-09-18T01:10:14;4.40;;;4.00;;
41101;SDS011;26845;50.190;19.178;2023-09-18T01:12:53;5.10;;;3.80;;
41101;SDS011;26845;50.190;19.178;2023-09-18T01:15:39;5.80;;;4.00;;
41101;SDS011;26845;50.190;19.178;2023-09-18T01:18:33;4.50;;;3.70;;
41101;SDS011;26845;50.190;19.178;2023-09-18T01:21:15;5.30;;;3.80;;
41101;SDS011;26845;50.190;19.178;2023-09-18T01:23:46;6.40;;;3.80;;
41101;SDS011;26845;50.190;19.178;2023-09-18T01:26:14;4.80;;;4.00;;
41101;SDS011;26845;50.190;19.178;2023-09-18T01:28:44;7.30;;;4.30;;
41101;SDS011;26845;50.190;19.178;2023-09-18T01:31:11;4.50;;;4.10;;
41101;SDS011;26845;50.190;19.178;2023-09-18T01:33:37;6.40;;;4.40;;
41101;SDS011;26845;50.190;19.178;2023-09-18T01:36:05;4.10;;;3.80;;
41101;SDS011;26845;50.190;19.178;2023-09-18T01:38:51;6.00;;;4.00;;
41101;SDS011;26845;50.190;19.178;2023-09-18T01:41:17;3.90;;;3.40;;
41101;SDS011;26845;50.190;19.178;2023-09-18T01:43:48;5.70;;;3.70;;
41101;SDS011;26845;50.190;19.178;2023-09-18T01:46:15;6.00;;;4.60;;
41101;SDS011;26845;50.190;19.178;2023-09-18T01:48:45;7.00;;;4.30;;
41101;SDS011;26845;50.190;19.178;2023-09-18T01:51:15;3.90;;;3.50;;
41101;SDS011;26845;50.190;19.178;2023-09-18T01:53:44;5.30;;;3.70;;
41101;SDS011;26845;50.190;19.178;2023-09-18T01:56:11;4.10;;;3.70;;
41101;SDS011;26845;50.190;19.178;2023-09-18T01:58:37;4.70;;;3.70;;
41101;SDS011;26845;50.190;19.178;2023-09-18T02:01:03;4.40;;;3.80;;
41101;SDS011;26845;50.190;19.178;2023-09-18T02:03:29;4.30;;;3.30;;
41101;SDS011;26845;50.190;19.178;2023-09-18T02:06:10;4.40;;;3.10;;
41101;SDS011;26845;50.190;19.178;2023-09-18T02:08:36;3.50;;;3.20;;
41101;SDS011;26845;50.190;19.178;2023-09-18T02:11:03;4.60;;;3.60;;
41101;SDS011;26845;50.190;19.178;2023-09-18T02:13:30;4.10;;;3.50;;
41101;SDS011;26845;50.190;19.178;2023-09-18T02:16:04;4.50;;;3.40;;
41101;SDS011;26845;50.190;19.178;2023-09-18T02:18:34;4.80;;;3.30;;
41101;SDS011;26845;50.190;19.178;2023-09-18T02:21:02;4.00;;;3.00;;
41101;SDS011;26845;50.190;19.178;2023-09-18T02:23:28;4.50;;;3.60;;
41101;SDS011;26845;50.190;19.178;2023-09-18T02:25:59;3.70;;;3.40;;
41101;SDS011;26845;50.190;19.178;2023-09-18T02:28:35;5.60;;;3.50;;
41101;SDS011;26845;50.190;19.178;2023-09-18T02:31:01;4.60;;;3.40;;
41101;SDS011;26845;50.190;19.178;2023-09-18T02:33:28;5.20;;;3.40;;
41101;SDS011;26845;50.190;19.178;2023-09-18T02:35:55;3.70;;;3.40;;
41101;SDS011;26845;50.190;19.178;2023-09-18T02:38:27;3.60;;;3.20;;
41101;SDS011;26845;50.190;19.178;2023-09-18T02:40:57;4.10;;;3.20;;
41101;SDS011;26845;50.190;19.178;2023-09-18T02:43:23;4.20;;;3.10;;
41101;SDS011;26845;50.190;19.178;2023-09-18T02:45:49;4.40;;;3.70;;
41101;SDS011;26845;50.190;19.178;2023-09-18T02:48:16;4.80;;;3.60;;
41101;SDS011;26845;50.190;19.178;2023-09-18T02:50:46;3.60;;;3.30;;
41101;SDS011;26845;50.190;19.178;2023-09-18T02:53:22;4.20;;;3.40;;
41101;SDS011;26845;50.190;19.178;2023-09-18T02:55:52;4.90;;;3.30;;
41101;SDS011;26845;50.190;19.178;2023-09-18T02:58:19;4.10;;;3.70;;
41101;SDS011;26845;50.190;19.178;2023-09-18T03:00:55;5.60;;;4.00;;
41101;SDS011;26845;50.190;19.178;2023-09-18T03:03:23;4.60;;;4.00;;
41101;SDS011;26845;50.190;19.178;2023-09-18T03:05:50;3.40;;;3.10;;
41101;SDS011;26845;50.190;19.178;2023-09-18T03:08:17;7.50;;;4.10;;
41101;SDS011;26845;50.190;19.178;2023-09-18T03:10:43;4.80;;;3.50;;
41101;SDS011;26845;50.190;19.178;2023-09-18T03:13:10;4.10;;;3.50;;
41101;SDS011;26845;50.190;19.178;2023-09-18T03:15:38;4.30;;;4.00;;
41101;SDS011;26845;50.190;19.178;2023-09-18T03:18:08;6.10;;;3.70;;
41101;SDS011;26845;50.190;19.178;2023-09-18T03:20:34;6.40;;;3.60;;
41101;SDS011;26845;50.190;19.178;2023-09-18T03:23:01;4.00;;;3.60;;
41101;SDS011;26845;50.190;19.178;2023-09-18T03:25:33;4.30;;;3.90;;
41101;SDS011;26845;50.190;19.178;2023-09-18T03:27:59;4.60;;;3.80;;
41101;SDS011;26845;50.190;19.178;2023-09-18T03:30:26;4.10;;;3.80;;
41101;SDS011;26845;50.190;19.178;2023-09-18T03:33:11;6.00;;;3.80;;
41101;SDS011;26845;50.190;19.178;2023-09-18T03:35:49;5.20;;;4.00;;
41101;SDS011;26845;50.190;19.178;2023-09-18T03:38:31;8.10;;;4.40;;
41101;SDS011;26845;50.190;19.178;2023-09-18T03:41:05;4.10;;;3.60;;
41101;SDS011;26845;50.190;19.178;2023-09-18T03:43:32;4.90;;;3.80;;
41101;SDS011;26845;50.190;19.178;2023-09-18T03:46:03;7.80;;;3.90;;
41101;SDS011;26845;50.190;19.178;2023-09-18T03:48:34;5.20;;;3.80;;
41101;SDS011;26845;50.190;19.178;2023-09-18T03:51:20;5.00;;;3.40;;
41101;SDS011;26845;50.190;19.178;2023-09-18T03:53:47;6.20;;;3.40;;
41101;SDS011;26845;50.190;19.178;2023-09-18T03:56:17;4.60;;;3.50;;
41101;SDS011;26845;50.190;19.178;2023-09-18T03:59:00;4.40;;;3.90;;
41101;SDS011;26845;50.190;19.178;2023-09-18T04:01:50;3.90;;;3.60;;
41101;SDS011;26845;50.190;19.178;2023-09-18T04:04:39;4.60;;;3.70;;
41101;SDS011;26845;50.190;19.178;2023-09-18T04:07:10;6.90;;;4.20;;
41101;SDS011;26845;50.190;19.178;2023-09-18T04:09:37;7.60;;;3.30;;
41101;SDS011;26845;50.190;19.178;2023-09-18T04:12:31;6.10;;;4.10;;
41101;SDS011;26845;50.190;19.178;2023-09-18T04:15:06;5.30;;;3.80;;
41101;SDS011;26845;50.190;19.178;2023-09-18T04:17:52;4.70;;;4.00;;
41101;SDS011;26845;50.190;19.178;2023-09-18T04:20:19;4.70;;;3.90;;
41101;SDS011;26845;50.190;19.178;2023-09-18T04:22:45;5.60;;;4.50;;
41101;SDS011;26845;50.190;19.178;2023-09-18T04:25:16;5.90;;;4.40;;
41101;SDS011;26845;50.190;19.178;2023-09-18T04:27:53;4.60;;;3.70;;
41101;SDS011;26845;50.190;19.178;2023-09-18T04:30:21;4.20;;;3.80;;
41101;SDS011;26845;50.190;19.178;2023-09-18T04:32:51;3.90;;;3.60;;
41101;SDS011;26845;50.190;19.178;2023-09-18T04:35:19;4.10;;;3.70;;
41101;SDS011;26845;50.190;19.178;2023-09-18T04:37:45;7.00;;;3.90;;
41101;SDS011;26845;50.190;19.178;2023-09-18T04:40:27;5.70;;;3.90;;
41101;SDS011;26845;50.190;19.178;2023-09-18T04:42:58;5.70;;;3.90;;
41101;SDS011;26845;50.190;19.178;2023-09-18T04:45:30;7.20;;;3.90;;
41101;SDS011;26845;50.190;19.178;2023-09-18T04:47:59;5.40;;;4.20;;
41101;SDS011;26845;50.190;19.178;2023-09-18T04:50:41;4.80;;;4.40;;
41101;SDS011;26845;50.190;19.178;2023-09-18T04:53:07;6.60;;;4.70;;
41101;SDS011;26845;50.190;19.178;2023-09-18T04:55:38;5.50;;;4.70;;
41101;SDS011;26845;50.190;19.178;2023-09-18T04:58:04;6.60;;;4.30;;
41101;SDS011;26845;50.190;19.178;2023-09-18T05:59:21;7.90;;;6.00;;
41101;SDS011;26845;50.190;19.178;2023-09-18T06:02:47;9.30;;;6.60;;
41101;SDS011;26845;50.190;19.178;2023-09-18T06:06:13;6.80;;;6.10;;
41101;SDS011;26845;50.190;19.178;2023-09-18T06:09:39;12.40;;;6.90;;
41101;SDS011;26845;50.190;19.178;2023-09-18T06:13:05;10.80;;;7.50;;
41101;SDS011;26845;50.190;19.178;2023-09-18T06:16:31;8.70;;;6.70;;
41101;SDS011;26845;50.190;19.178;2023-09-18T06:20:03;7.10;;;5.90;;
41101;SDS011;26845;50.190;19.178;2023-09-18T06:22:51;8.60;;;6.30;;
41101;SDS011;26845;50.190;19.178;2023-09-18T06:26:17;8.30;;;7.40;;
41101;SDS011;26845;50.190;19.178;2023-09-18T06:29:43;7.80;;;7.00;;
41101;SDS011;26845;50.190;19.178;2023-09-18T06:33:09;7.10;;;6.00;;
41101;SDS011;26845;50.190;19.178;2023-09-18T06:36:34;7.20;;;6.40;;
41101;SDS011;26845;50.190;19.178;2023-09-18T06:40:00;8.50;;;7.20;;
41101;SDS011;26845;50.190;19.178;2023-09-18T06:43:26;9.10;;;7.00;;
41101;SDS011;26845;50.190;19.178;2023-09-18T06:46:12;7.40;;;6.70;;
41101;SDS011;26845;50.190;19.178;2023-09-18T06:49:38;8.20;;;7.40;;
41101;SDS011;26845;50.190;19.178;2023-09-18T06:53:05;10.00;;;6.60;;
41101;SDS011;26845;50.190;19.178;2023-09-18T06:56:27;7.50;;;6.70;;
41101;SDS011;26845;50.190;19.178;2023-09-18T06:59:53;7.50;;;6.80;;
41101;SDS011;26845;50.190;19.178;2023-09-18T07:02:54;7.50;;;6.80;;
41101;SDS011;26845;50.190;19.178;2023-09-18T07:05:43;7.90;;;7.10;;
41101;SDS011;26845;50.190;19.178;2023-09-18T07:09:09;8.20;;;7.40;;
41101;SDS011;26845;50.190;19.178;2023-09-18T07:12:15;8.20;;;7.20;;
41101;SDS011;26845;50.190;19.178;2023-09-18T07:15:22;8.30;;;7.50;;
41101;SDS011;26845;50.190;19.178;2023-09-18T07:18:44;7.60;;;6.60;;
41101;SDS011;26845;50.190;19.178;2023-09-18T07:22:09;7.50;;;6.60;;
41101;SDS011;26845;50.190;19.178;2023-09-18T07:25:35;8.50;;;6.90;;
41101;SDS011;26845;50.190;19.178;2023-09-18T07:28:23;8.70;;;7.50;;
41101;SDS011;26845;50.190;19.178;2023-09-18T07:30:49;7.60;;;6.80;;
41101;SDS011;26845;50.190;19.178;2023-09-18T07:33:16;7.50;;;6.50;;
41101;SDS011;26845;50.190;19.178;2023-09-18T07:35:47;8.00;;;7.20;;
41101;SDS011;26845;50.190;19.178;2023-09-18T07:40:40;7.40;;;6.70;;
41101;SDS011;26845;50.190;19.178;2023-09-18T07:43:06;8.40;;;7.20;;
41101;SDS011;26845;50.190;19.178;2023-09-18T07:45:33;9.40;;;6.80;;
41101;SDS011;26845;50.190;19.178;2023-09-18T07:48:00;8.80;;;7.30;;
41101;SDS011;26845;50.190;19.178;2023-09-18T07:50:26;8.80;;;7.30;;
41101;SDS011;26845;50.190;19.178;2023-09-18T07:52:53;8.20;;;7.10;;
41101;SDS011;26845;50.190;19.178;2023-09-18T07:55:28;9.40;;;7.00;;
41101;SDS011;26845;50.190;19.178;2023-09-18T07:57:55;9.40;;;7.00;;
41101;SDS011;26845;50.190;19.178;2023-09-18T08:00:24;7.50;;;6.90;;
41101;SDS011;26845;50.190;19.178;2023-09-18T08:02:51;7.70;;;6.90;;
41101;SDS011;26845;50.190;19.178;2023-09-18T08:05:19;7.60;;;6.90;;
41101;SDS011;26845;50.190;19.178;2023-09-18T08:07:46;8.10;;;7.20;;
41101;SDS011;26845;50.190;19.178;2023-09-18T08:10:13;7.70;;;7.00;;
41101;SDS011;26845;50.190;19.178;2023-09-18T08:12:39;8.00;;;7.30;;
41101;SDS011;26845;50.190;19.178;2023-09-18T08:15:05;8.20;;;7.40;;
41101;SDS011;26845;50.190;19.178;2023-09-18T08:17:32;8.00;;;7.20;;
41101;SDS011;26845;50.190;19.178;2023-09-18T08:19:58;8.50;;;7.70;;
41101;SDS011;26845;50.190;19.178;2023-09-18T08:22:24;8.10;;;7.30;;
41101;SDS011;26845;50.190;19.178;2023-09-18T08:24:50;8.50;;;7.60;;
41101;SDS011;26845;50.190;19.178;2023-09-18T08:27:18;13.20;;;7.80;;
41101;SDS011;26845;50.190;19.178;2023-09-18T08:29:44;8.10;;;7.30;;
41101;SDS011;26845;50.190;19.178;2023-09-18T08:32:11;8.60;;;6.90;;
41101;SDS011;26845;50.190;19.178;2023-09-18T08:34:37;8.70;;;7.70;;
41101;SDS011;26845;50.190;19.178;2023-09-18T08:37:04;8.30;;;7.60;;
41101;SDS011;26845;50.190;19.178;2023-09-18T08:39:30;9.20;;;7.80;;
41101;SDS011;26845;50.190;19.178;2023-09-18T08:42:04;8.40;;;7.60;;
41101;SDS011;26845;50.190;19.178;2023-09-18T08:44:30;11.10;;;6.80;;
41101;SDS011;26845;50.190;19.178;2023-09-18T08:46:56;9.80;;;7.60;;
41101;SDS011;26845;50.190;19.178;2023-09-18T08:49:23;8.50;;;7.60;;
41101;SDS011;26845;50.190;19.178;2023-09-18T08:51:53;8.20;;;7.40;;
41101;SDS011;26845;50.190;19.178;2023-09-18T08:54:20;7.80;;;7.00;;
41101;SDS011;26845;50.190;19.178;2023-09-18T08:56:47;10.30;;;7.30;;
41101;SDS011;26845;50.190;19.178;2023-09-18T08:59:13;8.90;;;7.60;;
41101;SDS011;26845;50.190;19.178;2023-09-18T09:01:40;11.70;;;7.70;;
41101;SDS011;26845;50.190;19.178;2023-09-18T09:04:06;8.10;;;7.40;;
41101;SDS011;26845;50.190;19.178;2023-09-18T09:06:32;8.60;;;7.50;;
41101;SDS011;26845;50.190;19.178;2023-09-18T09:08:58;8.10;;;7.40;;
41101;SDS011;26845;50.190;19.178;2023-09-18T09:11:24;11.70;;;7.50;;
41101;SDS011;26845;50.190;19.178;2023-09-18T09:16:54;7.90;;;7.00;;
41101;SDS011;26845;50.190;19.178;2023-09-18T09:19:54;9.70;;;7.80;;
41101;SDS011;26845;50.190;19.178;2023-09-18T09:22:19;8.30;;;7.50;;
41101;SDS011;26845;50.190;19.178;2023-09-18T09:24:46;7.70;;;6.90;;
41101;SDS011;26845;50.190;19.178;2023-09-18T09:27:12;7.90;;;7.10;;
41101;SDS011;26845;50.190;19.178;2023-09-18T09:29:40;8.40;;;7.50;;
41101;SDS011;26845;50.190;19.178;2023-09-18T09:32:18;8.10;;;6.50;;
41101;SDS011;26845;50.190;19.178;2023-09-18T09:34:45;12.00;;;6.90;;
41101;SDS011;26845;50.190;19.178;2023-09-18T09:37:12;10.30;;;7.50;;
41101;SDS011;26845;50.190;19.178;2023-09-18T09:39:49;9.10;;;7.40;;
41101;SDS011;26845;50.190;19.178;2023-09-18T09:42:16;8.80;;;7.90;;
41101;SDS011;26845;50.190;19.178;2023-09-18T09:45:03;8.80;;;7.30;;
41101;SDS011;26845;50.190;19.178;2023-09-18T09:47:34;9.70;;;7.50;;
41101;SDS011;26845;50.190;19.178;2023-09-18T09:50:05;8.90;;;7.70;;
41101;SDS011;26845;50.190;19.178;2023-09-18T09:52:35;9.50;;;7.90;;
41101;SDS011;26845;50.190;19.178;2023-09-18T09:55:02;8.00;;;7.10;;
41101;SDS011;26845;50.190;19.178;2023-09-18T09:57:30;8.10;;;7.40;;
41101;SDS011;26845;50.190;19.178;2023-09-18T10:00:03;11.80;;;7.60;;
41101;SDS011;26845;50.190;19.178;2023-09-18T10:02:50;7.50;;;6.80;;
41101;SDS011;26845;50.190;19.178;2023-09-18T10:05:21;8.10;;;7.20;;
41101;SDS011;26845;50.190;19.178;2023-09-18T10:07:51;7.90;;;7.10;;
41101;SDS011;26845;50.190;19.178;2023-09-18T10:10:19;8.50;;;7.70;;
41101;SDS011;26845;50.190;19.178;2023-09-18T10:12:45;8.50;;;7.50;;
41101;SDS011;26845;50.190;19.178;2023-09-18T10:15:14;10.80;;;7.30;;
41101;SDS011;26845;50.190;19.178;2023-09-18T10:17:42;8.10;;;7.30;;
41101;SDS011;26845;50.190;19.178;2023-09-18T10:20:14;7.30;;;6.60;;
41101;SDS011;26845;50.190;19.178;2023-09-18T10:22:45;7.30;;;6.70;;
41101;SDS011;26845;50.190;19.178;2023-09-18T10:30:14;8.50;;;7.60;;
41101;SDS011;26845;50.190;19.178;2023-09-18T10:32:43;9.60;;;7.50;;
41101;SDS011;26845;50.190;19.178;2023-09-18T10:35:11;9.00;;;6.80;;
41101;SDS011;26845;50.190;19.178;2023-09-18T10:37:37;8.80;;;7.50;;
41101;SDS011;26845;50.190;19.178;2023-09-18T10:40:05;7.90;;;7.00;;
41101;SDS011;26845;50.190;19.178;2023-09-18T10:42:34;8.30;;;7.10;;
41101;SDS011;26845;50.190;19.178;2023-09-18T10:45:01;9.60;;;7.00;;
41101;SDS011;26845;50.190;19.178;2023-09-18T10:47:29;8.60;;;7.10;;
41101;SDS011;26845;50.190;19.178;2023-09-18T10:49:57;7.00;;;6.30;;
41101;SDS011;26845;50.190;19.178;2023-09-18T10:52:26;6.70;;;5.70;;
41101;SDS011;26845;50.190;19.178;2023-09-18T10:54:52;6.90;;;6.30;;
41101;SDS011;26845;50.190;19.178;2023-09-18T10:57:18;7.90;;;6.00;;
41101;SDS011;26845;50.190;19.178;2023-09-18T10:59:47;7.00;;;6.30;;
41101;SDS011;26845;50.190;19.178;2023-09-18T11:02:13;7.40;;;6.60;;
41101;SDS011;26845;50.190;19.178;2023-09-18T11:04:44;7.70;;;6.70;;
41101;SDS011;26845;50.190;19.178;2023-09-18T11:07:20;7.30;;;6.20;;
41101;SDS011;26845;50.190;19.178;2023-09-18T11:09:46;7.60;;;6.50;;
41101;SDS011;26845;50.190;19.178;2023-09-18T11:12:16;6.60;;;6.00;;
41101;SDS011;26845;50.190;19.178;2023-09-18T11:14:47;6.60;;;6.00;;
41101;SDS011;26845;50.190;19.178;2023-09-18T11:20:03;8.30;;;6.60;;
41101;SDS011;26845;50.190;19.178;2023-09-18T11:22:34;7.50;;;6.80;;
41101;SDS011;26845;50.190;19.178;2023-09-18T11:25:37;7.60;;;5.70;;
41101;SDS011;26845;50.190;19.178;2023-09-18T11:28:12;6.50;;;5.90;;
41101;SDS011;26845;50.190;19.178;2023-09-18T11:30:48;6.80;;;6.20;;
41101;SDS011;26845;50.190;19.178;2023-09-18T11:33:16;6.90;;;6.30;;
41101;SDS011;26845;50.190;19.178;2023-09-18T11:35:56;7.60;;;6.50;;
41101;SDS011;26845;50.190;19.178;2023-09-18T11:38:22;6.80;;;6.20;;
41101;SDS011;26845;50.190;19.178;2023-09-18T11:40:48;6.60;;;6.00;;
41101;SDS011;26845;50.190;19.178;2023-09-18T11:43:21;7.30;;;6.60;;
41101;SDS011;26845;50.190;19.178;2023-09-18T11:45:54;6.80;;;6.20;;
41101;SDS011;26845;50.190;19.178;2023-09-18T11:48:21;6.70;;;6.00;;
41101;SDS011;26845;50.190;19.178;2023-09-18T11:50:49;7.10;;;6.10;;
41101;SDS011;26845;50.190;19.178;2023-09-18T11:53:17;6.80;;;6.10;;
41101;SDS011;26845;50.190;19.178;2023-09-18T11:55:46;7.00;;;6.30;;
41101;SDS011;26845;50.190;19.178;2023-09-18T11:58:13;6.30;;;5.70;;
41101;SDS011;26845;50.190;19.178;2023-09-18T12:00:39;6.80;;;6.20;;
41101;SDS011;26845;50.190;19.178;2023-09-18T12:03:16;9.50;;;6.60;;
41101;SDS011;26845;50.190;19.178;2023-09-18T12:05:59;6.80;;;6.30;;
41101;SDS011;26845;50.190;19.178;2023-09-18T12:08:30;9.30;;;6.40;;
41101;SDS011;26845;50.190;19.178;2023-09-18T12:10:57;6.30;;;5.80;;
41101;SDS011;26845;50.190;19.178;2023-09-18T12:13:26;8.50;;;6.40;;
41101;SDS011;26845;50.190;19.178;2023-09-18T12:15:56;6.60;;;6.00;;
41101;SDS011;26845;50.190;19.178;2023-09-18T12:18:32;6.90;;;6.30;;
41101;SDS011;26845;50.190;19.178;2023-09-18T12:21:01;7.50;;;6.00;;
41101;SDS011;26845;50.190;19.178;2023-09-18T12:26:01;6.10;;;5.60;;
41101;SDS011;26845;50.190;19.178;2023-09-18T12:28:28;7.00;;;6.40;;
41101;SDS011;26845;50.190;19.178;2023-09-18T12:30:54;6.40;;;5.70;;
41101;SDS011;26845;50.190;19.178;2023-09-18T12:33:22;6.40;;;5.90;;
41101;SDS011;26845;50.190;19.178;2023-09-18T12:35:49;7.10;;;6.20;;
41101;SDS011;26845;50.190;19.178;2023-09-18T12:38:17;6.80;;;6.30;;
41101;SDS011;26845;50.190;19.178;2023-09-18T12:40:52;6.70;;;6.10;;
41101;SDS011;26845;50.190;19.178;2023-09-18T12:43:18;6.70;;;6.10;;
41101;SDS011;26845;50.190;19.178;2023-09-18T12:45:44;6.60;;;5.90;;
41101;SDS011;26845;50.190;19.178;2023-09-18T12:48:11;7.10;;;6.30;;
41101;SDS011;26845;50.190;19.178;2023-09-18T12:50:39;7.40;;;6.20;;
41101;SDS011;26845;50.190;19.178;2023-09-18T12:53:11;5.80;;;5.30;;
41101;SDS011;26845;50.190;19.178;2023-09-18T12:55:38;6.80;;;6.20;;
41101;SDS011;26845;50.190;19.178;2023-09-18T12:58:05;6.80;;;6.20;;
41101;SDS011;26845;50.190;19.178;2023-09-18T13:00:33;9.70;;;6.10;;
41101;SDS011;26845;50.190;19.178;2023-09-18T13:03:00;7.10;;;6.20;;
41101;SDS011;26845;50.190;19.178;2023-09-18T13:05:29;6.80;;;6.10;;
41101;SDS011;26845;50.190;19.178;2023-09-18T13:08:03;6.10;;;5.60;;
41101;SDS011;26845;50.190;19.178;2023-09-18T13:10:51;6.40;;;5.80;;
41101;SDS011;26845;50.190;19.178;2023-09-18T13:13:20;6.50;;;6.00;;
41101;SDS011;26845;50.190;19.178;2023-09-18T13:15:47;6.80;;;6.20;;
41101;SDS011;26845;50.190;19.178;2023-09-18T13:18:14;6.20;;;5.60;;
41101;SDS011;26845;50.190;19.178;2023-09-18T13:20:41;8.00;;;5.90;;
41101;SDS011;26845;50.190;19.178;2023-09-18T13:23:08;6.60;;;6.00;;
41101;SDS011;26845;50.190;19.178;2023-09-18T13:25:40;6.90;;;6.30;;
41101;SDS011;26845;50.190;19.178;2023-09-18T13:28:12;6.70;;;6.10;;
41101;SDS011;26845;50.190;19.178;2023-09-18T13:30:40;6.70;;;5.90;;
41101;SDS011;26845;50.190;19.178;2023-09-18T13:33:11;6.40;;;5.80;;
41101;SDS011;26845;50.190;19.178;2023-09-18T13:35:39;7.40;;;6.20;;
41101;SDS011;26845;50.190;19.178;2023-09-18T13:38:07;6.00;;;5.20;;
41101;SDS011;26845;50.190;19.178;2023-09-18T13:40:37;5.40;;;5.00;;
41101;SDS011;26845;50.190;19.178;2023-09-18T13:43:07;6.10;;;5.50;;
41101;SDS011;26845;50.190;19.178;2023-09-18T13:45:34;6.10;;;5.30;;
41101;SDS011;26845;50.190;19.178;2023-09-18T13:48:04;7.60;;;5.50;;
41101;SDS011;26845;50.190;19.178;2023-09-18T13:50:34;5.60;;;5.10;;
41101;SDS011;26845;50.190;19.178;2023-09-18T13:53:01;5.90;;;5.40;;
41101;SDS011;26845;50.190;19.178;2023-09-18T13:55:29;5.20;;;4.70;;
41101;SDS011;26845;50.190;19.178;2023-09-18T13:57:55;5.30;;;4.70;;
41101;SDS011;26845;50.190;19.178;2023-09-18T14:00:21;5.50;;;4.90;;
41101;SDS011;26845;50.190;19.178;2023-09-18T14:02:48;7.90;;;5.30;;
41101;SDS011;26845;50.190;19.178;2023-09-18T14:05:14;5.40;;;4.90;;
41101;SDS011;26845;50.190;19.178;2023-09-18T14:07:40;7.80;;;5.20;;
41101;SDS011;26845;50.190;19.178;2023-09-18T14:10:07;5.20;;;4.30;;
41101;SDS011;26845;50.190;19.178;2023-09-18T14:12:36;5.20;;;4.70;;
41101;SDS011;26845;50.190;19.178;2023-09-18T14:15:06;6.40;;;4.60;;
41101;SDS011;26845;50.190;19.178;2023-09-18T14:17:33;5.50;;;4.90;;
41101;SDS011;26845;50.190;19.178;2023-09-18T14:19:59;5.40;;;4.40;;
41101;SDS011;26845;50.190;19.178;2023-09-18T14:22:26;5.70;;;5.10;;
41101;SDS011;26845;50.190;19.178;2023-09-18T14:24:52;5.70;;;5.00;;
41101;SDS011;26845;50.190;19.178;2023-09-18T14:27:18;5.70;;;5.20;;
41101;SDS011;26845;50.190;19.178;2023-09-18T14:29:44;6.00;;;5.40;;
41101;SDS011;26845;50.190;19.178;2023-09-18T14:32:10;5.50;;;5.10;;
41101;SDS011;26845;50.190;19.178;2023-09-18T14:34:36;5.60;;;5.10;;
41101;SDS011;26845;50.190;19.178;2023-09-18T14:37:02;5.80;;;5.20;;
41101;SDS011;26845;50.190;19.178;2023-09-18T14:39:34;5.10;;;4.70;;
41101;SDS011;26845;50.190;19.178;2023-09-18T14:42:00;6.30;;;4.40;;
41101;SDS011;26845;50.190;19.178;2023-09-18T14:44:26;5.70;;;5.10;;
41101;SDS011;26845;50.190;19.178;2023-09-18T14:47:05;4.40;;;4.00;;
41101;SDS011;26845;50.190;19.178;2023-09-18T14:49:31;5.50;;;4.60;;
41101;SDS011;26845;50.190;19.178;2023-09-18T14:51:57;4.80;;;4.30;;
41101;SDS011;26845;50.190;19.178;2023-09-18T14:54:24;5.70;;;4.50;;
41101;SDS011;26845;50.190;19.178;2023-09-18T14:56:53;4.30;;;3.80;;
41101;SDS011;26845;50.190;19.178;2023-09-18T14:59:21;5.80;;;4.40;;
41101;SDS011;26845;50.190;19.178;2023-09-18T15:01:47;5.80;;;5.10;;
41101;SDS011;26845;50.190;19.178;2023-09-18T15:04:14;5.40;;;4.70;;
41101;SDS011;26845;50.190;19.178;2023-09-18T15:06:40;5.50;;;4.90;;
41101;SDS011;26845;50.190;19.178;2023-09-18T15:09:06;5.70;;;4.40;;
41101;SDS011;26845;50.190;19.178;2023-09-18T15:11:33;6.50;;;4.30;;
41101;SDS011;26845;50.190;19.178;2023-09-18T15:14:01;6.20;;;4.80;;
41101;SDS011;26845;50.190;19.178;2023-09-18T15:16:29;6.00;;;4.50;;
41101;SDS011;26845;50.190;19.178;2023-09-18T15:18:55;5.40;;;4.80;;
41101;SDS011;26845;50.190;19.178;2023-09-18T15:21:24;4.90;;;4.40;;
41101;SDS011;26845;50.190;19.178;2023-09-18T15:23:50;4.70;;;4.30;;
41101;SDS011;26845;50.190;19.178;2023-09-18T15:26:16;4.80;;;4.30;;
41101;SDS011;26845;50.190;19.178;2023-09-18T15:28:42;5.10;;;4.70;;
41101;SDS011;26845;50.190;19.178;2023-09-18T15:31:31;5.00;;;4.50;;
41101;SDS011;26845;50.190;19.178;2023-09-18T15:34:57;8.00;;;4.60;;
41101;SDS011;26845;50.190;19.178;2023-09-18T15:37:23;5.80;;;4.90;;
41101;SDS011;26845;50.190;19.178;2023-09-18T15:39:50;7.30;;;5.50;;
41101;SDS011;26845;50.190;19.178;2023-09-18T15:42:16;5.00;;;4.60;;
41101;SDS011;26845;50.190;19.178;2023-09-18T15:44:42;4.70;;;4.30;;
41101;SDS011;26845;50.190;19.178;2023-09-18T15:47:09;5.30;;;4.70;;
41101;SDS011;26845;50.190;19.178;2023-09-18T15:49:37;4.60;;;4.20;;
41101;SDS011;26845;50.190;19.178;2023-09-18T15:52:07;5.10;;;4.50;;
41101;SDS011;26845;50.190;19.178;2023-09-18T15:54:33;8.90;;;4.80;;
41101;SDS011;26845;50.190;19.178;2023-09-18T15:57:00;4.60;;;4.20;;
41101;SDS011;26845;50.190;19.178;2023-09-18T16:00:13;6.50;;;4.60;;
41101;SDS011;26845;50.190;19.178;2023-09-18T16:02:47;4.60;;;4.10;;
41101;SDS011;26845;50.190;19.178;2023-09-18T16:06:16;4.50;;;4.10;;
41101;SDS011;26845;50.190;19.178;2023-09-18T16:09:07;4.90;;;4.20;;
41101;SDS011;26845;50.190;19.178;2023-09-18T16:11:35;6.20;;;4.40;;
41101;SDS011;26845;50.190;19.178;2023-09-18T16:14:01;5.20;;;4.70;;
41101;SDS011;26845;50.190;19.178;2023-09-18T16:16:27;6.20;;;4.80;;
41101;SDS011;26845;50.190;19.178;2023-09-18T16:18:53;6.70;;;4.70;;
41101;SDS011;26845;50.190;19.178;2023-09-18T16:21:23;5.10;;;4.50;;
41101;SDS011;26845;50.190;19.178;2023-09-18T16:23:49;6.40;;;4.70;;
41101;SDS011;26845;50.190;19.178;2023-09-18T16:26:15;6.40;;;5.20;;